createdAt,value
2023-03-06T00:00:35.813Z,10.23
2023-03-06T00:03:02.543Z,12.18
2023-03-06T00:05:29.409Z,10.88
2023-03-06T00:07:56.250Z,13.65
2023-03-06T00:10:24.814Z,11.93
2023-03-06T00:12:52.860Z,10.25
2023-03-06T00:15:19.589Z,12.07
2023-03-06T00:17:46.497Z,14.15
2023-03-06T00:20:13.545Z,10.10
2023-03-06T00:22:40.604Z,8.35
2023-03-06T00:25:08.084Z,9.65
2023-03-06T00:27:34.804Z,10.60
2023-03-06T00:30:01.644Z,9.48
2023-03-06T00:32:28.519Z,10.98
2023-03-06T00:34:55.643Z,9.80
2023-03-06T00:37:23.026Z,17.98
2023-03-06T00:39:49.787Z,12.43
2023-03-06T00:42:17.364Z,15.98
2023-03-06T00:44:44.151Z,11.40
2023-03-06T00:47:11.218Z,10.05
2023-03-06T00:49:37.984Z,10.75
2023-03-06T00:52:05.229Z,11.95
2023-03-06T00:54:31.898Z,14.63
2023-03-06T00:56:58.593Z,12.52
2023-03-06T00:59:25.376Z,16.70
2023-03-06T01:01:52.127Z,12.18
2023-03-06T01:04:19.030Z,9.00
2023-03-06T01:06:45.829Z,12.95
2023-03-06T01:09:12.727Z,11.02
2023-03-06T01:11:39.520Z,10.75
2023-03-06T01:14:06.180Z,9.23
2023-03-06T01:16:33.002Z,11.00
2023-03-06T01:18:59.701Z,11.02
2023-03-06T01:21:26.381Z,11.63
2023-03-06T01:23:53.048Z,12.75
2023-03-06T01:26:19.780Z,12.85
2023-03-06T01:28:46.524Z,9.75
2023-03-06T01:31:13.184Z,11.48
2023-03-06T01:33:40.040Z,8.75
2023-03-06T01:36:08.191Z,11.80
2023-03-06T01:38:35.551Z,12.20
2023-03-06T01:41:03.521Z,10.52
2023-03-06T01:43:32.200Z,14.32
2023-03-06T01:46:17.604Z,12.90
2023-03-06T01:48:44.929Z,12.80
2023-03-06T01:51:11.741Z,13.73
2023-03-06T01:53:38.427Z,11.60
2023-03-06T01:56:05.421Z,12.13
2023-03-06T01:58:32.068Z,17.48
2023-03-06T02:00:58.840Z,14.45
2023-03-06T02:03:26.436Z,12.85
2023-03-06T02:05:53.162Z,14.43
2023-03-06T02:08:20.582Z,11.73
2023-03-06T02:10:57.501Z,14.88
2023-03-06T02:13:24.283Z,13.07
2023-03-06T02:15:50.982Z,12.27
2023-03-06T02:18:17.630Z,13.68
2023-03-06T02:20:55.077Z,12.52
2023-03-06T02:23:24.458Z,11.85
2023-03-06T02:25:51.218Z,10.70
2023-03-06T02:28:19.579Z,11.43
2023-03-06T02:30:47.378Z,9.85
2023-03-06T02:33:14.907Z,13.90
2023-03-06T02:35:45.655Z,12.80
2023-03-06T02:38:14.648Z,11.85
2023-03-06T02:40:42.492Z,14.45
2023-03-06T02:43:09.239Z,16.23
2023-03-06T02:45:45.238Z,15.65
2023-03-06T02:48:12.793Z,19.63
2023-03-06T02:50:40.102Z,15.90
2023-03-06T02:53:07.044Z,12.13
2023-03-06T02:55:33.867Z,12.95
2023-03-06T02:58:00.790Z,19.63
2023-03-06T03:00:27.552Z,17.45
2023-03-06T03:02:54.576Z,14.40
2023-03-06T03:05:21.326Z,15.02
2023-03-06T03:07:48.005Z,14.43
2023-03-06T03:10:14.890Z,15.18
2023-03-06T03:12:41.738Z,11.52
2023-03-06T03:15:09.142Z,14.80
2023-03-06T03:17:39.769Z,14.85
2023-03-06T03:20:08.083Z,17.33
2023-03-06T03:22:34.820Z,15.32
2023-03-06T03:25:01.580Z,18.40
2023-03-06T03:27:28.312Z,12.63
2023-03-06T03:30:00.181Z,13.05
2023-03-06T03:32:26.936Z,16.95
2023-03-06T03:34:55.476Z,14.35
2023-03-06T03:42:31.219Z,18.38
2023-03-06T03:44:57.874Z,13.20
2023-03-06T03:47:24.526Z,18.48
2023-03-06T03:49:51.249Z,16.45
2023-03-06T03:52:17.930Z,12.38
2023-03-06T03:54:44.582Z,18.92
2023-03-06T03:57:11.293Z,14.65
2023-03-06T03:59:38.006Z,12.38
2023-03-06T04:02:05.020Z,14.55
2023-03-06T04:04:31.846Z,15.00
2023-03-06T04:06:58.532Z,16.45
2023-03-06T04:09:25.185Z,14.68
2023-03-06T04:11:51.866Z,13.25
2023-03-06T04:14:18.530Z,17.60
2023-03-06T04:16:45.264Z,16.75
2023-03-06T04:19:11.932Z,14.60
2023-03-06T04:21:38.603Z,13.93
2023-03-06T04:24:05.896Z,15.88
2023-03-06T04:26:32.614Z,14.93
2023-03-06T04:28:59.434Z,13.82
2023-03-06T04:31:26.198Z,17.58
2023-03-06T04:33:52.956Z,14.85
2023-03-06T04:36:33.123Z,17.60
2023-03-06T04:39:00.118Z,16.52
2023-03-06T04:41:27.114Z,20.60
2023-03-06T04:43:54.060Z,16.27
2023-03-06T04:46:20.800Z,15.15
2023-03-06T04:48:47.468Z,16.10
2023-03-06T04:51:14.507Z,13.38
2023-03-06T04:53:41.235Z,14.88
2023-03-06T04:56:08.222Z,16.17
2023-03-06T04:58:34.940Z,18.48
2023-03-06T05:01:01.774Z,17.13
2023-03-06T05:03:28.474Z,15.27
2023-03-06T05:05:55.228Z,19.90
2023-03-06T05:08:23.663Z,17.25
2023-03-06T05:10:57.628Z,19.40
2023-03-06T05:13:24.633Z,21.35
2023-03-06T05:15:51.372Z,22.08
2023-03-06T05:18:18.255Z,15.93
2023-03-06T05:20:45.039Z,15.52
2023-03-06T05:23:11.942Z,18.05
2023-03-06T05:25:40.395Z,16.60
2023-03-06T05:28:07.534Z,17.33
2023-03-06T05:30:34.455Z,16.63
2023-03-06T05:33:01.216Z,28.27
2023-03-06T05:35:28.121Z,17.83
2023-03-06T05:37:54.966Z,15.52
2023-03-06T05:40:21.683Z,19.08
2023-03-06T05:42:48.464Z,19.33
2023-03-06T05:45:15.160Z,21.55
2023-03-06T05:47:41.883Z,20.73
2023-03-06T05:50:10.468Z,14.85
2023-03-06T05:52:39.458Z,25.17
2023-03-06T05:55:06.784Z,19.33
2023-03-06T05:57:33.486Z,17.65
2023-03-06T06:00:00.132Z,19.23
2023-03-06T06:02:26.925Z,13.63
2023-03-06T06:04:53.814Z,13.32
2023-03-06T06:07:20.482Z,17.13
2023-03-06T06:09:47.149Z,17.55
2023-03-06T06:12:14.136Z,15.30
2023-03-06T06:14:40.799Z,16.38
2023-03-06T06:17:07.564Z,16.20
2023-03-06T06:19:34.240Z,15.63
2023-03-06T06:22:02.747Z,13.50
2023-03-06T06:24:29.711Z,16.77
2023-03-06T06:26:56.980Z,17.23
2023-03-06T06:29:23.856Z,16.95
2023-03-06T06:31:50.757Z,15.80
2023-03-06T06:34:17.498Z,17.67
2023-03-06T06:36:44.314Z,18.60
2023-03-06T06:39:11.663Z,16.83
2023-03-06T06:41:55.304Z,52.33
2023-03-06T06:44:25.089Z,25.42
2023-03-06T06:47:23.747Z,19.73
2023-03-06T06:49:39.567Z,15.45
2023-03-06T06:52:06.519Z,16.38
2023-03-06T06:54:34.096Z,13.68
2023-03-06T06:57:00.958Z,15.35
2023-03-06T06:59:27.758Z,15.18
2023-03-06T07:01:54.451Z,12.43
2023-03-06T07:04:21.272Z,13.15
2023-03-06T07:06:47.976Z,12.55
2023-03-06T07:09:14.631Z,12.45
2023-03-06T07:11:41.464Z,16.65
2023-03-06T07:14:08.182Z,14.18
2023-03-06T07:16:35.004Z,13.25
2023-03-06T07:19:01.797Z,16.38
2023-03-06T07:21:28.532Z,12.32
2023-03-06T07:23:57.304Z,12.32
2023-03-06T07:26:25.329Z,16.70
2023-03-06T07:28:54.961Z,14.52
2023-03-06T07:31:23.358Z,11.38
2023-03-06T07:33:50.705Z,13.82
2023-03-06T07:36:17.765Z,12.73
2023-03-06T07:38:44.475Z,16.17
2023-03-06T07:41:13.848Z,14.73
2023-03-06T07:43:41.293Z,10.52
2023-03-06T07:46:08.241Z,12.13
2023-03-06T07:48:35.865Z,11.25
2023-03-06T07:51:04.504Z,11.20
2023-03-06T07:53:31.481Z,12.27
2023-03-06T07:55:58.249Z,10.93
2023-03-06T07:58:25.152Z,13.15
2023-03-06T08:00:51.885Z,11.55
2023-03-06T08:03:18.785Z,11.38
2023-03-06T08:05:45.641Z,9.18
2023-03-06T08:08:12.448Z,12.20
2023-03-06T08:10:39.181Z,10.98
2023-03-06T08:13:05.950Z,9.13
2023-03-06T08:15:32.645Z,10.50
2023-03-06T08:17:59.359Z,12.25
2023-03-06T08:20:26.119Z,13.15
2023-03-06T08:22:52.844Z,10.07
2023-03-06T08:25:19.653Z,10.02
2023-03-06T08:27:47.429Z,11.23
2023-03-06T08:30:14.673Z,8.80
2023-03-06T08:32:41.568Z,10.55
2023-03-06T08:35:08.671Z,12.60
2023-03-06T08:37:35.441Z,12.05
2023-03-06T08:40:04.590Z,9.40
2023-03-06T08:42:32.272Z,11.82
2023-03-06T08:44:59.011Z,8.00
2023-03-06T08:47:25.820Z,11.75
2023-03-06T08:49:52.597Z,8.27
2023-03-06T08:52:19.909Z,10.27
2023-03-06T08:54:46.679Z,7.93
2023-03-06T08:57:13.384Z,8.20
2023-03-06T08:59:42.010Z,8.68
2023-03-06T09:02:12.173Z,7.00
2023-03-06T09:04:38.944Z,8.90
2023-03-06T09:07:05.714Z,8.85
2023-03-06T09:09:32.393Z,9.68
2023-03-06T09:11:59.133Z,12.52
2023-03-06T09:14:25.837Z,9.00
2023-03-06T09:16:52.673Z,8.40
2023-03-06T09:19:19.514Z,6.78
2023-03-06T09:21:46.224Z,9.27
2023-03-06T09:24:12.921Z,7.55
2023-03-06T09:26:46.213Z,9.00
2023-03-06T09:29:15.438Z,11.70
2023-03-06T09:31:42.111Z,9.27
2023-03-06T09:34:08.801Z,7.10
2023-03-06T09:36:49.280Z,8.95
2023-03-06T09:39:21.973Z,8.10
2023-03-06T09:41:49.551Z,7.03
2023-03-06T09:44:18.577Z,8.20
2023-03-06T09:47:03.703Z,6.80
2023-03-06T09:49:48.463Z,9.27
2023-03-06T09:53:00.196Z,9.25
2023-03-06T09:55:28.806Z,6.78
2023-03-06T09:58:10.051Z,11.45
2023-03-06T10:00:57.638Z,10.20
2023-03-06T10:03:48.022Z,12.63
2023-03-06T10:06:30.481Z,7.32
2023-03-06T10:09:15.251Z,9.45
2023-03-06T10:11:43.303Z,7.68
2023-03-06T10:14:34.650Z,10.00
2023-03-06T10:17:01.831Z,10.05
2023-03-06T10:19:35.686Z,6.15
2023-03-06T10:22:15.776Z,14.05
2023-03-06T10:24:45.948Z,12.43
2023-03-06T10:27:41.819Z,18.63
2023-03-06T10:30:18.519Z,9.73
2023-03-06T10:32:55.569Z,6.03
2023-03-06T10:35:24.054Z,11.15
2023-03-06T10:37:50.944Z,18.33
2023-03-06T10:40:22.325Z,11.68
2023-03-06T10:42:54.003Z,12.80
2023-03-06T10:45:29.921Z,19.02
2023-03-06T10:48:14.296Z,13.50
2023-03-06T10:50:40.975Z,13.02
2023-03-06T10:53:13.666Z,13.23
2023-03-06T10:55:40.624Z,10.43
2023-03-06T10:58:23.097Z,14.15
2023-03-06T11:01:19.351Z,18.77
2023-03-06T11:03:46.170Z,12.07
2023-03-06T11:06:30.732Z,14.25
2023-03-06T11:09:23.839Z,10.52
2023-03-06T11:11:51.182Z,16.67
2023-03-06T11:14:19.408Z,12.40
2023-03-06T11:16:52.729Z,24.67
2023-03-06T11:19:27.953Z,9.68
2023-03-06T11:22:05.576Z,11.32
2023-03-06T11:24:42.474Z,24.25
2023-03-06T11:27:34.441Z,10.38
2023-03-06T11:30:06.352Z,11.38
2023-03-06T11:32:45.256Z,7.57
2023-03-06T11:35:39.612Z,12.95
2023-03-06T11:38:11.675Z,7.75
2023-03-06T11:40:44.728Z,12.73
2023-03-06T11:43:44.778Z,11.27
2023-03-06T11:46:15.075Z,19.13
2023-03-06T11:48:49.916Z,9.38
2023-03-06T11:51:22.022Z,16.85
2023-03-06T11:53:48.834Z,15.20
2023-03-06T11:56:39.653Z,17.27
2023-03-06T11:59:07.697Z,23.85
2023-03-06T12:01:37.198Z,13.30
2023-03-06T12:04:28.444Z,16.08
2023-03-06T12:07:27.424Z,9.20
2023-03-06T12:10:27.816Z,16.38
2023-03-06T12:13:03.371Z,13.15
2023-03-06T12:16:07.861Z,14.13
2023-03-06T12:18:55.707Z,12.45
2023-03-06T12:21:40.077Z,30.33
2023-03-06T12:27:27.931Z,13.18
2023-03-06T12:30:21.968Z,7.00
2023-03-06T12:33:08.123Z,17.50
2023-03-06T12:36:13.674Z,14.65
2023-03-06T12:38:58.320Z,15.15
2023-03-06T12:41:30.687Z,16.30
2023-03-06T12:44:12.162Z,9.65
2023-03-06T12:47:06.078Z,13.07
2023-03-06T12:49:38.823Z,12.93
2023-03-06T12:52:06.892Z,15.13
2023-03-06T12:54:36.027Z,9.57
2023-03-06T12:57:02.856Z,10.63
2023-03-06T12:59:48.507Z,7.40
2023-03-06T13:02:27.120Z,8.23
2023-03-06T13:05:15.655Z,6.78
2023-03-06T13:08:09.777Z,5.22
2023-03-06T13:10:36.754Z,12.00
2023-03-06T13:13:05.074Z,5.70
2023-03-06T13:15:45.832Z,5.65
2023-03-06T13:18:21.702Z,40.97
2023-03-06T13:20:57.535Z,14.38
2023-03-06T13:23:32.460Z,7.80
2023-03-06T13:26:03.128Z,24.27
2023-03-06T13:28:50.153Z,13.13
2023-03-06T13:31:27.879Z,13.55
2023-03-06T13:34:02.613Z,11.02
2023-03-06T13:36:30.284Z,6.45
2023-03-06T13:39:03.510Z,6.75
2023-03-06T13:41:34.344Z,9.60
2023-03-06T13:44:02.795Z,16.90
2023-03-06T13:46:35.402Z,15.85
2023-03-06T13:49:07.876Z,9.57
2023-03-06T13:51:53.866Z,21.23
2023-03-06T13:54:24.569Z,11.70
2023-03-06T13:57:19.467Z,6.93
2023-03-06T14:00:09.173Z,9.98
2023-03-06T14:03:14.905Z,6.63
2023-03-06T14:05:48.755Z,10.35
2023-03-06T14:10:47.331Z,4.20
2023-03-06T14:13:15.261Z,6.07
2023-03-06T14:15:48.859Z,6.63
2023-03-06T14:18:32.221Z,5.50
2023-03-06T14:21:02.519Z,5.17
2023-03-06T14:23:38.188Z,12.30
2023-03-06T14:26:20.373Z,8.32
2023-03-06T14:28:53.192Z,3.22
2023-03-06T14:31:21.477Z,3.97
2023-03-06T14:33:54.721Z,2.47
2023-03-06T14:36:22.978Z,8.93
2023-03-06T14:38:56.976Z,6.97
2023-03-06T14:43:51.284Z,7.68
2023-03-06T14:46:19.803Z,2.83
2023-03-06T14:48:46.832Z,12.02
2023-03-06T14:51:16.090Z,3.75
2023-03-06T14:53:44.438Z,8.85
2023-03-06T14:56:15.186Z,8.75
2023-03-06T14:58:44.931Z,12.65
2023-03-06T15:01:13.138Z,4.90
2023-03-06T15:03:53.021Z,7.07
2023-03-06T15:06:23.190Z,8.45
2023-03-06T15:09:24.409Z,6.35
2023-03-06T15:12:01.110Z,4.93
2023-03-06T15:14:40.718Z,2.92
2023-03-06T15:17:21.195Z,4.03
2023-03-06T15:19:50.311Z,6.40
2023-03-06T15:22:26.396Z,5.90
2023-03-06T15:24:53.708Z,5.30
2023-03-06T15:27:22.797Z,10.05
2023-03-06T15:29:49.499Z,5.65
2023-03-06T15:32:30.122Z,11.73
2023-03-06T15:35:25.077Z,5.88
2023-03-06T15:37:52.068Z,10.45
2023-03-06T15:40:20.169Z,9.70
2023-03-06T15:42:47.027Z,8.07
2023-03-06T15:45:19.481Z,6.70
2023-03-06T15:47:46.950Z,11.05
2023-03-06T15:50:23.522Z,10.40
2023-03-06T15:52:50.396Z,6.43
2023-03-06T15:55:19.181Z,7.28
2023-03-06T15:57:50.946Z,6.35
2023-03-06T16:00:27.660Z,5.35
2023-03-06T16:02:58.131Z,2.72
2023-03-06T16:05:25.385Z,3.38
2023-03-06T16:07:52.205Z,11.80
2023-03-06T16:10:20.924Z,4.90
2023-03-06T16:13:02.990Z,3.17
2023-03-06T16:15:30.858Z,6.35
2023-03-06T16:17:57.941Z,3.10
2023-03-06T16:20:26.411Z,2.10
2023-03-06T16:22:56.027Z,4.43
2023-03-06T16:25:23.834Z,3.75
2023-03-06T16:27:57.925Z,4.78
2023-03-06T16:32:52.214Z,3.55
2023-03-06T16:35:19.078Z,5.18
2023-03-06T16:37:46.134Z,4.25
2023-03-06T16:40:23.398Z,3.88
2023-03-06T16:42:50.518Z,6.00
2023-03-06T16:45:18.548Z,7.45
2023-03-06T16:47:46.020Z,4.47
2023-03-06T16:50:26.615Z,3.55
2023-03-06T16:52:54.626Z,5.65
2023-03-06T16:55:21.959Z,2.55
2023-03-06T16:57:48.766Z,3.72
2023-03-06T17:00:18.798Z,5.00
2023-03-06T17:02:48.311Z,5.90
2023-03-06T17:05:15.253Z,3.13
2023-03-06T17:07:41.925Z,2.22
2023-03-06T17:10:10.786Z,9.25
2023-03-06T17:12:38.240Z,8.85
2023-03-06T17:15:05.925Z,9.27
2023-03-06T17:17:32.910Z,6.55
2023-03-06T17:20:00.170Z,7.55
2023-03-06T17:22:27.576Z,11.05
2023-03-06T17:24:54.870Z,8.15
2023-03-06T17:27:22.307Z,6.43
2023-03-06T17:29:49.214Z,7.15
2023-03-06T17:32:16.000Z,12.35
2023-03-06T17:34:43.044Z,13.45
2023-03-06T17:37:09.796Z,5.78
2023-03-06T17:39:37.661Z,9.68
2023-03-06T17:42:05.487Z,6.88
2023-03-06T17:44:33.145Z,13.75
2023-03-06T17:47:00.008Z,13.95
2023-03-06T17:49:26.729Z,16.02
2023-03-06T17:51:53.994Z,9.23
2023-03-06T17:54:20.806Z,10.32
2023-03-06T17:56:47.548Z,8.90
2023-03-06T17:59:14.291Z,9.40
2023-03-06T18:01:41.255Z,8.82
2023-03-06T18:04:07.969Z,14.05
2023-03-06T18:06:34.710Z,6.40
2023-03-06T18:09:01.413Z,9.95
2023-03-06T18:11:28.232Z,5.78
2023-03-06T18:13:55.063Z,4.15
2023-03-06T18:16:23.075Z,2.22
2023-03-06T18:18:53.885Z,5.30
2023-03-06T18:21:20.710Z,3.35
2023-03-06T18:23:47.386Z,5.30
2023-03-06T18:26:15.181Z,5.38
2023-03-06T18:28:46.626Z,3.90
2023-03-06T18:31:17.673Z,7.88
2023-03-06T18:33:44.878Z,3.92
2023-03-06T18:36:11.583Z,4.25
2023-03-06T18:38:40.293Z,3.92
2023-03-06T18:41:10.567Z,4.13
2023-03-06T18:43:38.669Z,4.53
2023-03-06T18:46:05.741Z,9.68
2023-03-06T18:48:32.556Z,4.45
2023-03-06T18:51:09.609Z,4.20
2023-03-06T18:53:39.863Z,7.97
2023-03-06T18:56:08.045Z,5.90
2023-03-06T18:58:34.726Z,7.85
2023-03-06T19:01:06.147Z,10.20
2023-03-06T19:03:32.853Z,3.95
2023-03-06T19:05:59.575Z,7.72
2023-03-06T19:08:26.328Z,7.22
2023-03-06T19:10:53.409Z,6.78
2023-03-06T19:13:20.252Z,7.82
2023-03-06T19:15:48.824Z,6.00
2023-03-06T19:18:17.057Z,6.43
2023-03-06T19:20:44.235Z,6.28
2023-03-06T19:23:11.609Z,5.45
2023-03-06T19:25:38.326Z,4.10
2023-03-06T19:28:05.220Z,9.38
2023-03-06T19:30:31.959Z,5.25
2023-03-06T19:32:58.714Z,10.45
2023-03-06T19:35:26.411Z,5.78
2023-03-06T19:37:53.662Z,6.25
2023-03-06T19:40:20.521Z,3.63
2023-03-06T19:42:47.605Z,4.35
2023-03-06T19:45:14.413Z,6.32
2023-03-06T19:47:41.073Z,9.20
2023-03-06T19:50:08.857Z,2.70
2023-03-06T19:52:36.642Z,1.70
2023-03-06T19:55:03.577Z,4.28
2023-03-06T19:57:30.419Z,4.85
2023-03-06T19:59:58.629Z,1.42
2023-03-06T20:02:27.190Z,2.83
2023-03-06T20:04:54.610Z,2.40
2023-03-06T20:07:21.451Z,5.22
2023-03-06T20:09:48.423Z,3.88
2023-03-06T20:12:15.482Z,4.03
2023-03-06T20:14:42.448Z,5.35
2023-03-06T20:17:09.263Z,4.35
2023-03-06T20:19:36.468Z,3.75
2023-03-06T20:22:03.441Z,3.08
2023-03-06T20:24:30.166Z,2.95
2023-03-06T20:26:58.377Z,4.00
2023-03-06T20:29:28.044Z,3.10
2023-03-06T20:31:55.654Z,5.75
2023-03-06T20:34:22.722Z,4.32
2023-03-06T20:36:49.490Z,3.55
2023-03-06T20:39:18.285Z,5.30
2023-03-06T20:41:45.028Z,4.57
2023-03-06T20:44:14.185Z,4.88
2023-03-06T20:46:41.086Z,5.97
2023-03-06T20:49:08.111Z,7.65
2023-03-06T20:51:38.530Z,8.57
2023-03-06T20:54:06.436Z,6.05
2023-03-06T20:56:34.761Z,7.75
2023-03-06T20:59:02.129Z,6.60
2023-03-06T21:01:30.685Z,7.20
2023-03-06T21:04:07.004Z,6.38
2023-03-06T21:06:33.709Z,6.05
2023-03-06T21:09:00.882Z,3.70
2023-03-06T21:11:27.760Z,5.53
2023-03-06T21:13:54.962Z,5.40
2023-03-06T21:16:22.546Z,3.83
2023-03-06T21:18:49.442Z,4.88
2023-03-06T21:21:20.802Z,5.95
2023-03-06T21:23:47.864Z,2.85
2023-03-06T21:26:16.299Z,3.33
2023-03-06T21:28:43.461Z,4.68
2023-03-06T21:31:11.514Z,3.95
2023-03-06T21:33:38.397Z,3.83
2023-03-06T21:36:05.396Z,5.25
2023-03-06T21:38:32.339Z,8.05
2023-03-06T21:41:10.013Z,2.58
2023-03-06T21:43:36.912Z,4.47
2023-03-06T21:46:03.705Z,2.58
2023-03-06T21:48:30.636Z,4.82
2023-03-06T21:51:15.648Z,6.30
2023-03-06T21:53:43.067Z,3.67
2023-03-06T21:56:10.518Z,7.80
2023-03-06T21:58:39.273Z,5.88
2023-03-06T22:01:10.798Z,3.65
2023-03-06T22:03:37.578Z,4.57
2023-03-06T22:06:09.174Z,6.70
2023-03-06T22:08:36.097Z,3.08
2023-03-06T22:11:10.588Z,3.17
2023-03-06T22:13:37.534Z,3.85
2023-03-06T22:16:04.734Z,5.00
2023-03-06T22:18:34.106Z,2.67
2023-03-06T22:21:05.468Z,4.20
2023-03-06T22:23:32.373Z,3.63
2023-03-06T22:26:05.315Z,7.40
2023-03-06T22:28:32.247Z,9.05
2023-03-06T22:31:25.825Z,3.85
2023-03-06T22:33:56.419Z,5.43
2023-03-06T22:36:23.263Z,2.85
2023-03-06T22:38:52.862Z,4.65
2023-03-06T22:41:20.140Z,5.30
2023-03-06T22:43:46.928Z,3.28
2023-03-06T22:46:16.005Z,3.08
2023-03-06T22:48:42.838Z,3.80
2023-03-06T22:51:11.600Z,7.55
2023-03-06T22:53:38.550Z,4.57
2023-03-06T22:56:06.418Z,4.97
2023-03-06T22:58:37.307Z,5.85
2023-03-06T23:01:08.622Z,3.08
2023-03-06T23:03:39.714Z,3.83
2023-03-06T23:06:23.886Z,4.10
2023-03-06T23:08:52.449Z,4.00
2023-03-06T23:11:19.775Z,2.75
2023-03-06T23:13:46.602Z,3.05
2023-03-06T23:16:13.316Z,3.55
2023-03-06T23:18:40.187Z,6.13
2023-03-06T23:21:08.815Z,2.83
2023-03-06T23:23:38.963Z,4.97
2023-03-06T23:26:06.630Z,3.38
2023-03-06T23:28:33.567Z,4.97
2023-03-06T23:31:00.708Z,2.40
2023-03-06T23:33:27.389Z,4.65
2023-03-06T23:35:54.148Z,2.95
2023-03-06T23:38:20.845Z,2.88
2023-03-06T23:40:47.505Z,2.00
2023-03-06T23:43:14.220Z,2.85
2023-03-06T23:45:40.958Z,3.75
2023-03-06T23:48:08.068Z,5.28
2023-03-06T23:50:34.885Z,3.42
2023-03-06T23:53:01.610Z,2.20
2023-03-06T23:55:28.316Z,2.33
2023-03-06T23:57:55.009Z,6.15
